Time;durP1;ratioP1;P1;durP2;ratioP2;P2;SDS_P1;SDS_P2;PMS_P1;PMS_P2;Temp;Humidity;BMP_temperature;BMP_pressure;BME280_temperature;BME280_humidity;BME280_pressure;Samples;Min_cycle;Max_cycle;Signal;HPM_P1;HPM_P2
2022/07/24 00:02:20;;;;;;;10.57;7.20;;;18.00;67.00;;;;;;4989492;28;20486;-78
2022/07/24 00:04:46;;;;;;;10.25;7.28;;;17.90;67.40;;;;;;4982238;28;20112;-78
2022/07/24 00:07:12;;;;;;;8.00;7.20;;;17.80;67.50;;;;;;4994930;28;20064;-78
2022/07/24 00:09:37;;;;;;;8.40;7.32;;;17.70;68.00;;;;;;5012533;28;20146;-78
2022/07/24 00:12:03;;;;;;;8.98;6.97;;;17.60;70.80;;;;;;4991700;28;20091;-78
2022/07/24 00:14:29;;;;;;;8.10;7.20;;;17.50;69.30;;;;;;4999216;28;20029;-78
2022/07/24 00:16:54;;;;;;;11.45;7.53;;;17.50;70.90;;;;;;5001048;28;20525;-78
2022/07/24 00:19:20;;;;;;;9.05;6.80;;;17.60;69.30;;;;;;4997808;28;20034;-78
2022/07/24 00:21:45;;;;;;;9.05;6.88;;;17.60;68.70;;;;;;4974161;28;20035;-78
2022/07/24 00:24:11;;;;;;;7.47;6.78;;;17.70;69.30;;;;;;4993109;28;20061;-78
2022/07/24 00:26:37;;;;;;;8.45;6.30;;;17.60;68.80;;;;;;5002608;28;20037;-78
2022/07/24 00:29:02;;;;;;;9.77;6.82;;;17.50;69.80;;;;;;4978213;28;20022;-78
2022/07/24 00:31:28;;;;;;;9.20;6.90;;;17.50;68.90;;;;;;4966003;28;20030;-78
2022/07/24 00:33:54;;;;;;;7.47;6.63;;;17.40;68.70;;;;;;5000203;28;20035;-77
2022/07/24 00:36:19;;;;;;;6.88;5.65;;;17.20;70.60;;;;;;5008729;28;20056;-77
2022/07/24 00:38:45;;;;;;;7.65;6.55;;;17.20;70.20;;;;;;5002567;28;20516;-77
2022/07/24 00:41:10;;;;;;;8.23;6.13;;;17.10;71.10;;;;;;5017946;28;20045;-77
2022/07/24 00:44:04;;;;;;;6.15;4.95;;;17.20;69.80;;;;;;5010982;28;20041;-77
2022/07/24 00:46:30;;;;;;;8.18;6.78;;;17.30;69.60;;;;;;5013907;28;20061;-78
2022/07/24 00:48:56;;;;;;;9.10;6.85;;;17.20;69.40;;;;;;4996032;28;20515;-77
2022/07/24 00:51:21;;;;;;;7.05;6.20;;;17.30;69.90;;;;;;5002984;28;20394;-77
2022/07/24 00:53:47;;;;;;;10.55;5.85;;;17.20;69.50;;;;;;4981510;28;20030;-77
2022/07/24 00:56:13;;;;;;;7.43;6.72;;;17.20;69.60;;;;;;4978416;28;20030;-77
2022/07/24 00:58:38;;;;;;;7.40;6.70;;;17.20;69.60;;;;;;5007485;28;20030;-77
2022/07/24 01:01:04;;;;;;;7.45;6.50;;;17.20;70.50;;;;;;5023166;28;20042;-77
2022/07/24 01:03:29;;;;;;;8.23;7.20;;;17.10;70.00;;;;;;4980711;28;20030;-77
2022/07/24 01:05:55;;;;;;;9.07;7.18;;;17.00;72.50;;;;;;4984453;28;20064;-78
2022/07/24 01:08:21;;;;;;;14.27;6.78;;;17.00;71.10;;;;;;4991722;28;20061;-77
2022/07/24 01:10:46;;;;;;;8.43;6.90;;;16.90;71.30;;;;;;4999611;28;20030;-77
2022/07/24 01:13:12;;;;;;;8.23;6.32;;;16.80;71.40;;;;;;4995066;28;20036;-78
2022/07/24 01:15:38;;;;;;;7.97;6.30;;;16.80;71.40;;;;;;4999566;28;20105;-79
2022/07/24 01:18:03;;;;;;;7.18;6.47;;;16.80;73.10;;;;;;5003041;28;20104;-78
2022/07/24 01:20:29;;;;;;;8.82;6.35;;;16.80;72.80;;;;;;4979188;28;20057;-78
2022/07/24 01:22:54;;;;;;;8.50;5.95;;;16.70;73.10;;;;;;5007721;28;20434;-78
2022/07/24 01:25:20;;;;;;;9.77;6.43;;;16.60;72.90;;;;;;5016359;28;20030;-79
2022/07/24 01:27:45;;;;;;;8.65;6.85;;;16.60;72.80;;;;;;5022779;28;20034;-76
2022/07/24 01:30:11;;;;;;;7.65;6.85;;;16.60;72.60;;;;;;4995905;28;20030;-76
2022/07/24 01:32:37;;;;;;;8.07;6.72;;;16.60;73.20;;;;;;5006887;28;20668;-78
2022/07/24 01:35:03;;;;;;;13.32;7.82;;;16.60;73.20;;;;;;4992478;28;20036;-78
2022/07/24 01:37:29;;;;;;;6.82;6.03;;;16.60;72.70;;;;;;5016257;28;20034;-77
2022/07/24 01:39:54;;;;;;;9.18;6.97;;;16.60;71.70;;;;;;4996247;28;20038;-77
2022/07/24 01:42:20;;;;;;;9.70;6.82;;;16.60;72.50;;;;;;5008201;28;20031;-77
2022/07/24 01:44:46;;;;;;;10.43;7.10;;;16.60;72.30;;;;;;4992991;28;20125;-78
2022/07/24 01:47:11;;;;;;;11.50;7.07;;;16.60;72.60;;;;;;5006633;28;20117;-78
2022/07/24 01:49:37;;;;;;;11.13;6.93;;;16.60;71.80;;;;;;5004049;28;20064;-78
2022/07/24 01:52:03;;;;;;;7.95;6.65;;;16.50;72.90;;;;;;5024705;28;20370;-78
2022/07/24 01:54:28;;;;;;;8.63;7.35;;;16.40;74.50;;;;;;5012183;28;20123;-78
2022/07/24 01:56:54;;;;;;;7.72;6.85;;;16.30;74.10;;;;;;5013266;28;20029;-77
2022/07/24 01:59:19;;;;;;;8.00;7.20;;;16.30;73.10;;;;;;4996319;28;20068;-78
2022/07/24 02:01:45;;;;;;;10.75;7.53;;;16.30;75.90;;;;;;5014772;28;20036;-78
2022/07/24 02:04:10;;;;;;;10.80;7.72;;;16.30;73.60;;;;;;5016715;28;20033;-78
2022/07/24 02:06:36;;;;;;;11.02;7.95;;;16.30;75.70;;;;;;5008195;28;20045;-78
2022/07/24 02:09:02;;;;;;;11.10;7.28;;;16.20;72.70;;;;;;5031497;28;20068;-77
2022/07/24 02:11:27;;;;;;;9.07;6.47;;;16.20;74.40;;;;;;4991680;28;20059;-77
2022/07/24 02:13:55;;;;;;;7.47;6.78;;;16.20;72.50;;;;;;5010809;28;20104;-78
2022/07/24 02:16:21;;;;;;;7.38;6.47;;;16.20;72.70;;;;;;5009971;28;20041;-78
2022/07/24 02:18:46;;;;;;;8.55;7.18;;;16.20;74.90;;;;;;5010028;28;20029;-77
2022/07/24 02:21:12;;;;;;;7.95;6.80;;;16.20;72.80;;;;;;5004713;28;20468;-78
2022/07/24 02:23:37;;;;;;;10.18;6.60;;;16.20;72.60;;;;;;5023873;28;20029;-77
2022/07/24 02:26:03;;;;;;;8.38;7.18;;;16.10;73.50;;;;;;5008324;28;20065;-77
2022/07/24 02:28:29;;;;;;;12.20;7.18;;;16.00;74.50;;;;;;4999687;28;20034;-77
2022/07/24 02:30:54;;;;;;;7.85;7.05;;;16.00;74.00;;;;;;4995814;28;20101;-77
2022/07/24 02:33:20;;;;;;;12.00;6.88;;;16.00;74.00;;;;;;4992014;28;20042;-77
2022/07/24 02:35:45;;;;;;;12.63;7.30;;;16.00;73.50;;;;;;5008809;28;20030;-77
2022/07/24 02:38:11;;;;;;;13.65;6.90;;;16.00;76.00;;;;;;5010657;28;20030;-77
2022/07/24 02:40:37;;;;;;;8.95;6.75;;;16.00;73.90;;;;;;4996106;28;20225;-77
2022/07/24 02:43:02;;;;;;;7.47;6.47;;;16.00;74.20;;;;;;5008601;28;20037;-77
2022/07/24 02:45:28;;;;;;;9.18;6.88;;;16.00;73.10;;;;;;5010164;28;20090;-77
2022/07/24 02:47:55;;;;;;;9.07;6.45;;;16.00;74.40;;;;;;5025894;28;20101;-77
2022/07/24 02:50:22;;;;;;;8.20;6.78;;;16.00;75.80;;;;;;5027337;28;20037;-77
2022/07/24 02:52:48;;;;;;;5.78;4.63;;;16.00;75.90;;;;;;5011656;28;20475;-78
2022/07/24 02:55:13;;;;;;;5.50;4.53;;;16.00;75.80;;;;;;4989287;28;20061;-77
2022/07/24 02:57:39;;;;;;;6.70;4.68;;;16.10;75.20;;;;;;5006814;28;20465;-78
2022/07/24 03:00:06;;;;;;;6.82;6.20;;;16.10;76.80;;;;;;5010319;28;20037;-77
2022/07/24 03:02:32;;;;;;;5.65;5.07;;;16.10;82.00;;;;;;4994526;28;20026;-77
2022/07/24 03:04:57;;;;;;;10.55;7.00;;;16.10;78.10;;;;;;4980992;28;20156;-77
2022/07/24 03:07:23;;;;;;;5.38;4.03;;;16.00;75.30;;;;;;4976000;28;20041;-77
2022/07/24 03:09:48;;;;;;;8.63;5.00;;;16.00;75.50;;;;;;5027457;28;20030;-77
2022/07/24 03:12:14;;;;;;;6.75;5.65;;;16.00;75.90;;;;;;4995381;28;20026;-77
2022/07/24 03:14:40;;;;;;;9.05;6.38;;;16.00;75.40;;;;;;5010190;28;20038;-78
2022/07/24 03:17:05;;;;;;;11.30;6.28;;;15.90;82.80;;;;;;5003693;28;20038;-77
2022/07/24 03:19:31;;;;;;;7.10;6.40;;;15.80;79.50;;;;;;5007338;28;20113;-77
2022/07/24 03:21:56;;;;;;;7.78;6.57;;;15.90;77.10;;;;;;4991255;28;20361;-77
2022/07/24 03:24:22;;;;;;;10.43;6.82;;;15.90;76.60;;;;;;4989439;28;20034;-77
2022/07/24 03:26:47;;;;;;;5.00;4.60;;;15.90;76.60;;;;;;4973778;28;20037;-77
2022/07/24 03:29:13;;;;;;;6.97;5.45;;;16.00;77.50;;;;;;5023719;28;20026;-77
2022/07/24 03:31:38;;;;;;;5.85;5.32;;;16.00;79.30;;;;;;5024386;28;20421;-77
2022/07/24 03:34:04;;;;;;;5.28;4.68;;;16.00;78.60;;;;;;4990261;28;20457;-77
2022/07/24 03:36:30;;;;;;;5.20;4.75;;;16.00;78.50;;;;;;5026176;28;20478;-77
2022/07/24 03:38:55;;;;;;;5.75;5.20;;;16.00;80.10;;;;;;4987883;28;20469;-77
2022/07/24 03:41:21;;;;;;;6.18;5.45;;;16.00;81.30;;;;;;4976098;28;20034;-77
2022/07/24 03:43:46;;;;;;;7.03;6.18;;;16.00;79.40;;;;;;4991123;28;20038;-77
2022/07/24 03:46:12;;;;;;;5.10;4.70;;;15.90;83.30;;;;;;5007229;28;20407;-77
2022/07/24 03:48:37;;;;;;;7.65;5.50;;;15.90;80.60;;;;;;4991428;28;20603;-77
2022/07/24 03:51:03;;;;;;;4.97;4.50;;;16.00;78.80;;;;;;4978500;28;20524;-77
2022/07/24 03:53:29;;;;;;;4.15;3.45;;;16.00;80.10;;;;;;5011066;28;20116;-77
2022/07/24 03:55:54;;;;;;;8.43;5.30;;;16.10;81.60;;;;;;4994966;28;20041;-77
2022/07/24 03:58:20;;;;;;;4.57;4.18;;;16.00;81.30;;;;;;4979033;28;20041;-77
2022/07/24 04:00:45;;;;;;;5.50;5.00;;;16.00;83.00;;;;;;5008726;28;20083;-77
2022/07/24 04:03:11;;;;;;;6.93;6.22;;;16.00;81.20;;;;;;5008742;28;20204;-77
2022/07/24 04:05:36;;;;;;;7.88;5.65;;;16.00;85.20;;;;;;4978662;28;20117;-77
2022/07/24 04:08:02;;;;;;;7.40;5.05;;;16.00;85.10;;;;;;5014874;28;20045;-77
2022/07/24 04:10:27;;;;;;;8.30;5.50;;;16.00;87.30;;;;;;5020890;28;20053;-77
2022/07/24 04:12:53;;;;;;;6.43;5.78;;;16.10;91.00;;;;;;5016551;28;20405;-77
2022/07/24 04:15:18;;;;;;;6.72;6.03;;;16.20;91.30;;;;;;5018752;28;20030;-77
2022/07/24 04:17:44;;;;;;;6.53;5.07;;;16.20;92.80;;;;;;5012646;28;20405;-77
2022/07/24 04:20:10;;;;;;;7.05;5.65;;;16.20;92.00;;;;;;4998707;28;20080;-77
2022/07/24 04:22:36;;;;;;;7.88;5.07;;;16.20;93.00;;;;;;5012465;28;20048;-77
2022/07/24 04:25:02;;;;;;;5.38;4.88;;;16.30;92.80;;;;;;4979073;28;20022;-77
2022/07/24 04:27:27;;;;;;;8.45;5.28;;;16.40;92.10;;;;;;4995286;28;20033;-78
2022/07/24 04:29:53;;;;;;;5.90;5.30;;;16.50;93.50;;;;;;4998381;28;20492;-77
2022/07/24 04:32:19;;;;;;;6.35;5.15;;;16.60;94.20;;;;;;4996650;28;20114;-78
2022/07/24 04:34:44;;;;;;;7.72;4.80;;;16.80;94.50;;;;;;4991274;28;20022;-78
2022/07/24 04:37:10;;;;;;;4.65;4.25;;;16.90;94.20;;;;;;4993311;28;20065;-78
2022/07/24 04:39:35;;;;;;;4.40;4.00;;;16.90;93.00;;;;;;4994978;28;20022;-78
2022/07/24 04:42:01;;;;;;;6.60;4.57;;;17.00;92.20;;;;;;4978713;28;20084;-77
2022/07/24 04:44:26;;;;;;;7.60;5.88;;;17.10;93.60;;;;;;5033233;28;20029;-78
2022/07/24 04:46:52;;;;;;;6.65;4.90;;;17.20;93.60;;;;;;5012261;28;20490;-78
2022/07/24 04:49:17;;;;;;;6.05;3.60;;;17.20;92.70;;;;;;4994269;28;20121;-76
2022/07/24 04:51:43;;;;;;;4.40;4.00;;;17.30;92.00;;;;;;4977836;28;20034;-76
2022/07/24 04:54:08;;;;;;;7.35;4.50;;;17.40;92.10;;;;;;5013168;28;20501;-76
2022/07/24 04:56:34;;;;;;;6.60;4.63;;;17.50;92.60;;;;;;5012167;28;20693;-76
2022/07/24 04:59:01;;;;;;;5.32;4.82;;;17.50;92.50;;;;;;4988157;28;20378;-77
2022/07/24 05:01:27;;;;;;;6.18;4.75;;;17.70;93.90;;;;;;5000837;28;20029;-78
2022/07/24 05:03:53;;;;;;;4.28;3.88;;;17.80;93.20;;;;;;5007823;28;20068;-78
2022/07/24 05:06:18;;;;;;;4.68;4.10;;;17.90;91.90;;;;;;4992421;28;20080;-78
2022/07/24 05:08:44;;;;;;;4.38;3.97;;;18.10;92.60;;;;;;5010791;28;20037;-78
2022/07/24 05:11:10;;;;;;;4.70;4.20;;;18.10;91.40;;;;;;4983150;28;20038;-78
2022/07/24 05:13:35;;;;;;;6.30;4.53;;;18.20;90.90;;;;;;5029994;28;20056;-78
2022/07/24 05:16:01;;;;;;;6.95;5.07;;;18.30;91.20;;;;;;5010504;28;20149;-78
2022/07/24 05:18:26;;;;;;;4.82;3.85;;;18.30;91.90;;;;;;5009578;28;20405;-77
2022/07/24 05:20:52;;;;;;;5.57;4.35;;;18.60;91.20;;;;;;5012821;28;20030;-77
2022/07/24 05:23:17;;;;;;;4.57;3.70;;;18.70;91.70;;;;;;5015279;28;20034;-77
2022/07/24 05:25:43;;;;;;;5.40;4.10;;;18.80;90.90;;;;;;4980590;28;20037;-77
2022/07/24 05:28:09;;;;;;;6.13;4.65;;;18.90;91.00;;;;;;5010370;28;20044;-78
2022/07/24 05:30:34;;;;;;;5.28;4.30;;;19.10;91.20;;;;;;4992910;28;20049;-78
2022/07/24 05:33:00;;;;;;;5.97;4.07;;;19.20;90.40;;;;;;5031195;28;20531;-78
2022/07/24 05:35:25;;;;;;;4.75;4.35;;;19.30;89.20;;;;;;4996119;28;20088;-77
2022/07/24 05:37:51;;;;;;;5.72;4.57;;;19.50;89.70;;;;;;5016867;28;20029;-77
2022/07/24 05:40:16;;;;;;;5.90;4.25;;;19.60;90.40;;;;;;5009596;28;20104;-78
2022/07/24 05:42:42;;;;;;;5.90;4.47;;;19.90;87.40;;;;;;5023626;28;20060;-78
2022/07/24 05:45:08;;;;;;;4.80;4.38;;;20.20;87.00;;;;;;5007261;28;20042;-78
2022/07/24 05:47:41;;;;;;;5.00;4.50;;;20.30;87.50;;;;;;4995011;28;20033;-77
2022/07/24 05:50:07;;;;;;;5.93;4.20;;;20.40;87.40;;;;;;4997612;28;20096;-77
2022/07/24 05:52:33;;;;;;;4.78;4.35;;;20.50;84.00;;;;;;5009915;28;20080;-77
2022/07/24 05:54:58;;;;;;;4.32;3.67;;;20.60;85.80;;;;;;5006031;28;20065;-77
2022/07/24 05:57:24;;;;;;;4.55;3.97;;;20.80;85.30;;;;;;4998729;28;20034;-77
2022/07/24 05:59:49;;;;;;;7.13;5.20;;;20.90;83.90;;;;;;5028264;28;20025;-77
2022/07/24 06:02:15;;;;;;;6.07;3.75;;;21.00;85.40;;;;;;4989625;28;20053;-77
2022/07/24 06:04:43;;;;;;;4.75;3.85;;;21.20;83.50;;;;;;4992621;28;20037;-77
2022/07/24 06:07:09;;;;;;;4.65;4.07;;;21.30;83.70;;;;;;5009484;28;20482;-77
2022/07/24 06:09:36;;;;;;;5.95;4.00;;;21.60;81.90;;;;;;5007854;28;20113;-78
2022/07/24 06:12:02;;;;;;;4.38;3.70;;;21.90;81.70;;;;;;5023387;28;20041;-78
2022/07/24 06:14:28;;;;;;;4.43;4.03;;;21.90;81.00;;;;;;5008975;28;20455;-76
2022/07/24 06:16:53;;;;;;;5.70;4.00;;;22.00;80.60;;;;;;5009312;28;20112;-76
2022/07/24 06:19:19;;;;;;;4.72;3.65;;;22.20;80.20;;;;;;5015724;28;20436;-77
2022/07/24 06:21:44;;;;;;;4.07;3.67;;;22.30;80.10;;;;;;5011269;28;20022;-76
2022/07/24 06:24:10;;;;;;;4.63;3.90;;;22.50;79.60;;;;;;5020375;28;20452;-76
2022/07/24 06:26:35;;;;;;;4.63;4.20;;;22.40;79.20;;;;;;5010004;28;20547;-76
2022/07/24 06:29:01;;;;;;;5.28;4.13;;;22.50;78.60;;;;;;4992443;28;20250;-76
2022/07/24 06:31:26;;;;;;;4.35;3.95;;;22.40;79.80;;;;;;5010654;28;20041;-76
2022/07/24 06:33:52;;;;;;;4.13;3.72;;;22.70;79.10;;;;;;4992634;28;20132;-77
2022/07/24 06:36:18;;;;;;;4.13;3.65;;;22.90;79.20;;;;;;5015321;28;20083;-77
2022/07/24 06:38:43;;;;;;;5.32;4.22;;;23.50;78.20;;;;;;4994978;28;20092;-77
2022/07/24 06:41:09;;;;;;;5.25;4.03;;;23.80;79.40;;;;;;4993940;28;20056;-77
2022/07/24 06:43:34;;;;;;;5.93;3.83;;;23.70;75.40;;;;;;5011167;28;20064;-77
2022/07/24 06:46:00;;;;;;;3.97;3.60;;;24.00;77.90;;;;;;4989284;28;20045;-77
2022/07/24 06:48:25;;;;;;;5.78;3.53;;;24.20;75.80;;;;;;5008999;28;20072;-77
2022/07/24 06:50:51;;;;;;;4.55;4.15;;;24.30;77.50;;;;;;4991545;28;20038;-77
2022/07/24 06:53:16;;;;;;;4.53;4.07;;;24.20;75.30;;;;;;5007702;28;20548;-77
2022/07/24 06:55:42;;;;;;;5.07;4.10;;;24.20;75.40;;;;;;4992828;28;20040;-77
2022/07/24 06:58:08;;;;;;;5.43;3.88;;;24.50;74.50;;;;;;5025637;28;20104;-77
2022/07/24 07:00:33;;;;;;;4.88;3.75;;;24.50;74.70;;;;;;4975298;28;20051;-77
2022/07/24 07:02:59;;;;;;;5.60;3.53;;;24.10;73.80;;;;;;5009277;28;20140;-77
2022/07/24 07:05:25;;;;;;;4.05;3.65;;;24.40;74.30;;;;;;4992700;28;20030;-77
2022/07/24 07:07:50;;;;;;;9.77;4.43;;;24.70;73.70;;;;;;5006374;28;20476;-77
2022/07/24 07:10:16;;;;;;;6.80;4.32;;;25.00;74.30;;;;;;5014806;28;20040;-77
2022/07/24 07:12:42;;;;;;;6.75;3.75;;;25.40;74.90;;;;;;4976329;28;20026;-78
2022/07/24 07:15:10;;;;;;;5.90;3.63;;;25.60;72.50;;;;;;4991668;28;20034;-78
2022/07/24 07:17:39;;;;;;;5.47;4.05;;;25.30;71.30;;;;;;5004807;28;20071;-78
2022/07/24 07:20:06;;;;;;;4.22;3.92;;;25.10;71.20;;;;;;5004470;28;20746;-78
2022/07/24 07:22:31;;;;;;;5.82;3.45;;;25.10;71.20;;;;;;4991893;28;20564;-78
2022/07/24 07:24:57;;;;;;;4.88;3.50;;;25.40;70.80;;;;;;4987791;28;20040;-78
2022/07/24 07:27:23;;;;;;;4.13;3.72;;;26.10;72.20;;;;;;5006290;28;20117;-78
2022/07/24 07:29:48;;;;;;;4.72;3.75;;;26.30;69.60;;;;;;5006802;28;20045;-78
2022/07/24 07:32:14;;;;;;;4.72;3.83;;;26.20;68.60;;;;;;5007956;28;20030;-78
2022/07/24 07:34:40;;;;;;;5.45;4.28;;;26.10;68.50;;;;;;5023073;28;20033;-78
2022/07/24 07:37:05;;;;;;;11.18;5.40;;;26.40;67.10;;;;;;4991731;28;20038;-78
2022/07/24 07:39:31;;;;;;;5.80;4.38;;;25.90;67.40;;;;;;4977860;28;20156;-78
2022/07/24 07:41:57;;;;;;;8.73;4.80;;;26.10;68.20;;;;;;5006954;28;20030;-78
2022/07/24 07:44:22;;;;;;;4.38;3.92;;;26.50;67.10;;;;;;5016637;28;20490;-79
2022/07/24 07:46:48;;;;;;;4.63;4.03;;;26.60;65.70;;;;;;4994070;28;20037;-78
2022/07/24 07:49:13;;;;;;;6.35;4.68;;;26.80;66.20;;;;;;4977826;28;20543;-79
2022/07/24 07:51:39;;;;;;;5.53;4.15;;;26.90;65.70;;;;;;4970096;28;20037;-78
2022/07/24 07:54:04;;;;;;;8.18;4.50;;;27.40;65.00;;;;;;4984766;28;20033;-79
2022/07/24 07:56:32;;;;;;;5.78;4.15;;;26.90;64.50;;;;;;5009634;28;20037;-79
2022/07/24 07:58:58;;;;;;;5.35;4.07;;;27.30;64.20;;;;;;4992390;28;20042;-79
2022/07/24 08:01:23;;;;;;;5.60;4.32;;;27.60;63.50;;;;;;4993807;28;20954;-79
2022/07/24 08:03:49;;;;;;;5.78;4.00;;;27.90;64.60;;;;;;4978740;28;20037;-79
2022/07/24 08:06:15;;;;;;;4.72;4.20;;;27.70;63.80;;;;;;4974254;28;20141;-79
2022/07/24 08:08:40;;;;;;;7.03;4.07;;;27.80;62.60;;;;;;4992568;28;20085;-79
2022/07/24 08:11:06;;;;;;;7.53;4.65;;;28.10;65.00;;;;;;5025427;28;20092;-79
2022/07/24 08:13:31;;;;;;;4.65;4.18;;;28.30;62.30;;;;;;4993454;28;20482;-80
2022/07/24 08:15:57;;;;;;;4.78;4.15;;;28.60;62.10;;;;;;4994102;28;20040;-80
2022/07/24 08:18:23;;;;;;;4.90;4.30;;;28.80;62.50;;;;;;4974734;28;20120;-80
2022/07/24 08:20:48;;;;;;;5.20;4.50;;;28.70;62.30;;;;;;4990676;28;20458;-80
2022/07/24 08:23:14;;;;;;;5.63;4.15;;;28.80;61.60;;;;;;5011218;28;20464;-81
2022/07/24 08:25:39;;;;;;;6.78;4.88;;;28.90;62.60;;;;;;4989481;28;20029;-80
2022/07/24 08:28:05;;;;;;;5.72;4.47;;;29.20;59.80;;;;;;5006789;28;20042;-80
2022/07/24 08:30:31;;;;;;;6.53;4.75;;;29.80;60.00;;;;;;5005546;28;20029;-81
2022/07/24 08:32:56;;;;;;;7.18;4.75;;;30.10;61.60;;;;;;4986551;28;20031;-80
2022/07/24 08:35:23;;;;;;;6.20;4.30;;;30.10;61.40;;;;;;5009215;28;20041;-81
2022/07/24 08:37:48;;;;;;;6.20;4.53;;;29.90;59.40;;;;;;5010114;28;20026;-81
2022/07/24 08:40:15;;;;;;;7.47;4.60;;;29.90;59.70;;;;;;5011664;28;20624;-81
2022/07/24 08:42:40;;;;;;;4.95;4.55;;;30.00;58.60;;;;;;4997992;28;20521;-82
2022/07/24 08:45:07;;;;;;;8.48;4.40;;;30.20;60.60;;;;;;4999810;28;20060;-83
2022/07/24 08:47:32;;;;;;;5.50;4.97;;;30.30;58.10;;;;;;5019571;28;20030;-82
2022/07/24 08:49:58;;;;;;;8.10;4.95;;;30.40;60.60;;;;;;5017595;28;20044;-83
2022/07/24 08:52:24;;;;;;;6.50;4.32;;;30.30;57.50;;;;;;5007613;28;20059;-84
2022/07/24 08:54:50;;;;;;;7.25;4.60;;;30.60;58.50;;;;;;5012254;28;20033;-83
2022/07/24 08:57:15;;;;;;;6.22;5.63;;;31.00;59.10;;;;;;4978326;28;20549;-83
2022/07/24 08:59:41;;;;;;;6.30;5.15;;;30.90;57.10;;;;;;4993704;28;20038;-83
2022/07/24 09:02:07;;;;;;;8.52;4.70;;;31.10;58.60;;;;;;4996141;28;20049;-83
2022/07/24 09:04:40;;;;;;;5.38;4.20;;;31.40;58.20;;;;;;4998129;28;20143;-83
2022/07/24 09:07:12;;;;;;;5.47;4.47;;;31.50;57.40;;;;;;5011169;28;20046;-86
2022/07/24 09:09:38;;;;;;;4.82;4.22;;;31.60;58.40;;;;;;5014031;28;20029;-85
2022/07/24 09:12:16;;;;;;;4.40;4.00;;;31.60;57.10;;;;;;4976853;28;20044;-85
2022/07/24 09:14:45;;;;;;;5.40;4.53;;;31.90;55.70;;;;;;4996062;28;20354;-83
2022/07/24 09:17:16;;;;;;;5.57;4.80;;;31.70;55.60;;;;;;4973567;28;20535;-83
2022/07/24 09:19:52;;;;;;;5.72;5.13;;;32.10;57.00;;;;;;4997258;28;20523;-83
2022/07/24 09:22:35;;;;;;;6.28;4.95;;;32.20;57.80;;;;;;4996245;28;20137;-83
2022/07/24 09:25:22;;;;;;;6.28;4.57;;;32.60;56.60;;;;;;4993912;28;20040;-83
2022/07/24 09:27:52;;;;;;;4.75;4.35;;;32.60;55.60;;;;;;5011183;28;20367;-82
2022/07/24 09:30:25;;;;;;;7.63;4.68;;;32.50;53.90;;;;;;4970749;28;20526;-82
2022/07/24 09:33:08;;;;;;;5.43;4.93;;;32.50;55.00;;;;;;5027631;28;20030;-81
2022/07/24 09:35:41;;;;;;;4.95;4.47;;;32.60;54.50;;;;;;5008952;28;20552;-81
2022/07/24 09:38:08;;;;;;;9.82;5.13;;;32.60;53.40;;;;;;4978890;28;20145;-80
2022/07/24 09:40:36;;;;;;;6.00;5.35;;;32.60;53.50;;;;;;4999696;28;20112;-80
2022/07/24 09:43:16;;;;;;;6.88;5.57;;;33.00;53.70;;;;;;4991465;28;20099;-80
2022/07/24 09:45:57;;;;;;;6.55;5.00;;;33.30;52.80;;;;;;5013293;28;20030;-79
2022/07/24 09:48:31;;;;;;;5.68;4.47;;;33.20;53.20;;;;;;5006027;28;20148;-79
2022/07/24 09:51:13;;;;;;;5.03;4.43;;;33.40;54.30;;;;;;4987303;28;20034;-79
2022/07/24 09:53:39;;;;;;;5.25;4.70;;;33.70;52.90;;;;;;4976525;28;20779;-79
2022/07/24 09:56:06;;;;;;;4.88;4.40;;;33.80;52.80;;;;;;4987183;28;20037;-79
2022/07/24 09:58:35;;;;;;;5.97;4.50;;;33.90;53.20;;;;;;5014795;28;20037;-80
2022/07/24 10:01:01;;;;;;;4.43;4.03;;;33.80;54.20;;;;;;4987532;28;20060;-80
2022/07/24 10:03:32;;;;;;;5.22;4.72;;;33.90;52.80;;;;;;4987419;28;20067;-79
2022/07/24 10:06:00;;;;;;;5.55;4.97;;;34.10;52.20;;;;;;4976535;28;20034;-79
2022/07/24 10:08:26;;;;;;;7.28;5.20;;;34.30;54.00;;;;;;4963315;28;20075;-79
2022/07/24 10:10:51;;;;;;;7.90;4.85;;;34.40;53.90;;;;;;4973120;28;20073;-79
2022/07/24 10:13:17;;;;;;;4.97;4.57;;;34.60;50.40;;;;;;4973265;28;20041;-79
2022/07/24 10:16:13;;;;;;;10.70;5.15;;;34.60;52.30;;;;;;4994316;28;20038;-80
2022/07/24 10:18:47;;;;;;;7.78;4.80;;;34.80;51.80;;;;;;4994272;28;20034;-79
2022/07/24 10:21:25;;;;;;;6.22;4.28;;;34.80;51.70;;;;;;5012019;28;20034;-79
2022/07/24 10:24:11;;;;;;;7.68;4.68;;;34.90;51.70;;;;;;4989951;28;20221;-79
2022/07/24 10:26:41;;;;;;;5.85;4.40;;;35.10;51.10;;;;;;5018866;28;20029;-80
2022/07/24 10:29:14;;;;;;;4.93;4.53;;;35.40;50.20;;;;;;4995635;28;20066;-79
2022/07/24 10:31:43;;;;;;;5.35;4.82;;;35.50;50.90;;;;;;4995813;28;20033;-78
2022/07/24 10:34:43;;;;;;;7.38;5.13;;;35.60;50.20;;;;;;4993775;28;20116;-79
2022/07/24 10:37:34;;;;;;;5.00;4.53;;;35.70;48.40;;;;;;4998928;28;20030;-76
2022/07/24 10:40:08;;;;;;;6.70;4.70;;;35.80;50.40;;;;;;5011093;28;20073;-76
2022/07/24 10:43:20;;;;;;;9.85;5.13;;;35.90;48.20;;;;;;4988560;28;20037;-76
2022/07/24 10:45:49;;;;;;;5.43;4.47;;;36.10;49.20;;;;;;4995966;28;20455;-76
2022/07/24 10:48:20;;;;;;;5.63;5.07;;;36.30;48.40;;;;;;4984612;28;20065;-76
2022/07/24 10:51:00;;;;;;;5.07;4.40;;;36.40;48.80;;;;;;5004874;28;20038;-76
2022/07/24 10:53:27;;;;;;;5.10;4.35;;;36.40;49.30;;;;;;4990565;28;20493;-76
2022/07/24 10:56:01;;;;;;;8.40;5.68;;;36.40;48.50;;;;;;4990594;28;20028;-76
2022/07/24 10:58:26;;;;;;;6.88;4.95;;;36.50;48.40;;;;;;5002262;28;20033;-77
2022/07/24 11:00:52;;;;;;;6.53;4.43;;;36.60;47.90;;;;;;4995715;28;20383;-77
2022/07/24 11:03:29;;;;;;;6.32;4.45;;;36.70;46.90;;;;;;4994245;28;20088;-76
2022/07/24 11:06:07;;;;;;;4.28;3.47;;;36.70;47.00;;;;;;5014681;28;20482;-77
2022/07/24 11:08:40;;;;;;;5.13;4.55;;;36.60;46.80;;;;;;5005684;28;20507;-77
2022/07/24 11:11:16;;;;;;;7.82;5.68;;;36.70;46.70;;;;;;4981830;28;20109;-77
2022/07/24 11:13:43;;;;;;;6.28;5.47;;;36.60;47.10;;;;;;4988909;28;20410;-77
2022/07/24 11:16:11;;;;;;;6.30;5.68;;;36.60;47.20;;;;;;4978321;28;20474;-78
2022/07/24 11:18:37;;;;;;;5.97;5.43;;;36.70;46.40;;;;;;4994369;28;20122;-77
2022/07/24 11:21:03;;;;;;;4.70;4.30;;;36.70;47.40;;;;;;4987556;28;20038;-77
2022/07/24 11:23:29;;;;;;;4.97;4.55;;;36.60;48.00;;;;;;4990583;28;20056;-77
2022/07/24 11:26:40;;;;;;;6.30;4.65;;;36.70;48.00;;;;;;4994562;28;20041;-78
2022/07/24 11:29:38;;;;;;;5.40;4.55;;;36.90;47.60;;;;;;4979641;28;20030;-77
2022/07/24 11:32:08;;;;;;;5.38;4.85;;;37.40;45.40;;;;;;5000815;28;20030;-77
2022/07/24 11:34:35;;;;;;;5.65;4.90;;;37.30;46.00;;;;;;4973057;28;20034;-77
2022/07/24 11:37:00;;;;;;;5.30;4.78;;;37.50;46.30;;;;;;4963835;28;20376;-78
2022/07/24 11:39:33;;;;;;;4.95;4.43;;;37.70;44.30;;;;;;4957762;28;20035;-78
2022/07/24 11:42:03;;;;;;;5.95;5.32;;;37.70;45.20;;;;;;4977879;28;20056;-78
2022/07/24 11:44:41;;;;;;;8.50;5.55;;;37.60;45.00;;;;;;5000671;28;20058;-78
2022/07/24 11:47:13;;;;;;;7.68;4.65;;;37.40;45.40;;;;;;4991954;28;20076;-77
2022/07/24 11:49:43;;;;;;;8.90;5.65;;;37.60;45.80;;;;;;4972714;28;20045;-77
2022/07/24 11:52:14;;;;;;;4.55;4.13;;;37.70;45.40;;;;;;4982351;28;20504;-78
2022/07/24 11:54:39;;;;;;;5.50;4.80;;;37.80;45.20;;;;;;4989185;28;20102;-78
2022/07/24 11:57:05;;;;;;;6.57;4.85;;;37.90;46.40;;;;;;4992565;28;20114;-79
2022/07/24 11:59:31;;;;;;;6.20;3.97;;;37.90;45.50;;;;;;5004705;28;20122;-77
2022/07/24 12:02:07;;;;;;;5.30;4.07;;;37.90;46.10;;;;;;5005304;28;20395;-77
2022/07/24 12:04:33;;;;;;;5.43;4.00;;;38.10;45.10;;;;;;4998343;28;20370;-77
2022/07/24 12:06:59;;;;;;;7.13;4.20;;;38.50;45.40;;;;;;4994354;28;20041;-77
2022/07/24 12:09:25;;;;;;;5.80;4.53;;;39.10;42.70;;;;;;4973274;28;20240;-78
2022/07/24 12:11:51;;;;;;;6.20;5.18;;;39.10;41.90;;;;;;4977541;28;20121;-78
2022/07/24 12:14:18;;;;;;;6.50;4.32;;;39.50;41.00;;;;;;4975579;28;20026;-76
2022/07/24 12:16:44;;;;;;;4.70;4.30;;;39.40;42.80;;;;;;4997311;28;20402;-77
2022/07/24 12:19:20;;;;;;;9.25;4.68;;;39.50;41.30;;;;;;4996830;28;20034;-78
2022/07/24 12:21:47;;;;;;;4.35;4.05;;;39.40;41.30;;;;;;4956730;28;20100;-77
2022/07/24 12:24:12;;;;;;;6.05;4.82;;;39.20;43.60;;;;;;4990147;28;20073;-77
2022/07/24 12:26:54;;;;;;;4.97;4.47;;;39.30;43.40;;;;;;5007978;28;20068;-79
2022/07/24 12:29:20;;;;;;;5.72;4.53;;;39.30;43.20;;;;;;4995065;28;20065;-77
2022/07/24 12:31:45;;;;;;;5.85;5.25;;;39.30;42.60;;;;;;4992944;28;20085;-79
2022/07/24 12:34:11;;;;;;;6.20;4.60;;;39.30;42.70;;;;;;4994639;28;20430;-77
2022/07/24 12:36:40;;;;;;;6.25;4.40;;;39.40;42.40;;;;;;4979578;28;20041;-79
2022/07/24 12:39:05;;;;;;;8.18;4.18;;;39.60;41.80;;;;;;4982256;28;20038;-77
2022/07/24 12:41:31;;;;;;;5.40;5.00;;;39.80;42.00;;;;;;4965077;28;20508;-78
2022/07/24 12:44:00;;;;;;;4.03;3.72;;;39.60;41.70;;;;;;5009710;28;20097;-79
2022/07/24 12:46:30;;;;;;;4.10;3.55;;;39.60;41.20;;;;;;4994644;28;20026;-79
2022/07/24 12:49:16;;;;;;;4.15;3.75;;;39.80;41.00;;;;;;5009998;28;20084;-78